WetterOnline ( https://www.wetteronline.de )

Wetter aktuell Andiesen

Aktuelles Wetter: Fürstenzell (480m)

6-stündlich | Neueste Meldungen
Ortszeit Temperatur Wetter
Di, 11.05. 8:00 17.8° C leicht bewölkt
Di, 11.05. 2:00 18.2° C wolkig
Mo, 10.05. 20:00 23.6° C leicht bewölkt
Mo, 10.05. 14:00 26.4° C wolkenlos
Mo, 10.05. 8:00 14.2° C wolkig
Mo, 10.05. 2:00 16.1° C leicht bewölkt
So, 09.05. 20:00 21.9° C wolkig
So, 09.05. 14:00 23.2° C leicht bewölkt
Ortszeit Temperatur Wetter
Di, 11.05. 13:00 26.1° C leicht bewölkt
Di, 11.05. 12:50 26.1° C leicht bewölkt
Di, 11.05. 12:40 25.7° C fast wolkenlos
Di, 11.05. 12:30 26.2° C leicht bewölkt
Di, 11.05. 12:20 26.2° C leicht bewölkt
Di, 11.05. 12:10 25.9° C wolkenlos
Di, 11.05. 12:00 25.0° C wolkenlos
Di, 11.05. 11:30 24.3° C wolkenlos
Di, 11.05. 11:00 24.4° C wolkenlos
Di, 11.05. 10:30 23.2° C wolkenlos
Di, 11.05. 10:00 22.4° C wolkig
Ortszeit Relative Feuchte Sichtweite
Di, 11.05. 8:00 64% >70 km
Di, 11.05. 2:00 57% 60 km
Mo, 10.05. 20:00 36% 65 km
Mo, 10.05. 14:00 31% 55 km
Mo, 10.05. 8:00 72% 45 km
Mo, 10.05. 2:00 54% >70 km
So, 09.05. 20:00 39% >70 km
So, 09.05. 14:00 32% 60 km
Ortszeit Relative Feuchte Sichtweite
Di, 11.05. 13:00 33% >70 km
Di, 11.05. 12:50 33% -
Di, 11.05. 12:40 30% -
Di, 11.05. 12:30 34% 65 km
Di, 11.05. 12:20 34% -
Di, 11.05. 12:10 36% -
Di, 11.05. 12:00 33% 60 km
Di, 11.05. 11:30 33% 40 km
Di, 11.05. 11:00 38% 55 km
Di, 11.05. 10:30 42% 45 km
Di, 11.05. 10:00 43% 50 km
Ortszeit Niederschlagsmenge Niederschlagsart
Di, 11.05. 8:00 0.0 l/m2 in 12 Std. -
Di, 11.05. 2:00 0.0 l/m2 in 6 Std. -
Mo, 10.05. 20:00 0.0 l/m2 in 12 Std. -
Mo, 10.05. 14:00 0.0 l/m2 in 6 Std. -
Mo, 10.05. 8:00 0.0 l/m2 in 12 Std. -
Mo, 10.05. 2:00 0.0 l/m2 in 6 Std. -
So, 09.05. 20:00 0.0 l/m2 in 12 Std. -
So, 09.05. 14:00 0.0 l/m2 in 6 Std. -
Ortszeit Niederschlagsmenge Niederschlagsart
Di, 11.05. 13:00 0.0 l/m2 in 1 Std. -
Di, 11.05. 12:50 keine Meldung -
Di, 11.05. 12:40 keine Meldung -
Di, 11.05. 12:30 0.0 l/m2 in 1 Std. -
Di, 11.05. 12:20 keine Meldung -
Di, 11.05. 12:10 keine Meldung -
Di, 11.05. 12:00 0.0 l/m2 in 1 Std. -
Di, 11.05. 11:30 0.0 l/m2 in 1 Std. -
Di, 11.05. 11:00 0.0 l/m2 in 1 Std. -
Di, 11.05. 10:30 0.0 l/m2 in 1 Std. -
Di, 11.05. 10:00 0.0 l/m2 in 1 Std. -
Ortszeit Stärke Spitze Richtung
km/h Bft. km/h Grad Sektor
Di, 11.05. 8:00 7 2 25 60° NO
Di, 11.05. 2:00 9 2 28 140° SO
Mo, 10.05. 20:00 19 3 24 130° SO
Mo, 10.05. 14:00 7 2 22 170° S
Mo, 10.05. 8:00 9 2 11 50° NO
Mo, 10.05. 2:00 6 1 30 130° SO
So, 09.05. 20:00 11 2 29 90° O
So, 09.05. 14:00 9 2 22 150° SO
Ortszeit Stärke Spitze Richtung
km/h Bft. km/h Grad Sektor
Di, 11.05. 13:00 14 3 29 120° SO
Di, 11.05. 12:50 14 3 - 120° SO
Di, 11.05. 12:40 17 3 - 120° SO
Di, 11.05. 12:30 17 3 26 130° SO
Di, 11.05. 12:20 17 3 - 130° SO
Di, 11.05. 12:10 13 3 - 110° O
Di, 11.05. 12:00 17 3 26 120° SO
Di, 11.05. 11:30 11 2 19 130° SO
Di, 11.05. 11:00 7 2 18 120° SO
Di, 11.05. 10:30 7 2 14 130° SO
Di, 11.05. 10:00 7 2 22 140° SO
Ortszeit Untergrenze Bedeckung Gattung
total tief tief mittel hoch
Di, 11.05. 8:00 5100 m 4/8 3/8 - - -
Di, 11.05. 2:00 8400 m 8/8 0/8 - - -
Mo, 10.05. 20:00 9000 m 4/8 0/8 - - -
Mo, 10.05. 14:00 - 0/8 0/8 - - -
Mo, 10.05. 8:00 7500 m 8/8 0/8 - - -
Mo, 10.05. 2:00 8400 m 6/8 0/8 - - -
So, 09.05. 20:00 10500 m 8/8 0/8 - - -
So, 09.05. 14:00 10500 m 6/8 0/8 - - -
Ortszeit Bedeckungsgrad in Achtel und Wolkenuntergrenze
Di, 11.05. 13:00 1(8100m) 3(8700m)
Di, 11.05. 12:50 1(8100m) 3(8700m)
Di, 11.05. 12:40 2(8400m) 2(8700m)
Di, 11.05. 12:30 3(8700m)
Di, 11.05. 12:20 3(8700m)
Di, 11.05. 12:10 keine Wolken
Di, 11.05. 12:00 keine Wolken
Di, 11.05. 11:30 keine Wolken
Di, 11.05. 11:00 keine Wolken
Di, 11.05. 10:30 keine Wolken
Di, 11.05. 10:00 7(4500m)
Ortszeit Luftdruck NN (hPa) Tendenz (hPa in 3 Std.)
Di, 11.05. 8:00 1005 + 0,1
Di, 11.05. 2:00 1006 - 1,2
Mo, 10.05. 20:00 1007 - 0,1
Mo, 10.05. 14:00 1007 - 1,1
Mo, 10.05. 8:00 1010 + 0,9
Mo, 10.05. 2:00 1008 + 0,4
So, 09.05. 20:00 1007 - 1,9
So, 09.05. 14:00 1012 - 2,1
Ortszeit Luftdruck NN (hPa) Tendenz (hPa in 3 Std.)
Di, 11.05. 13:00 1002 - 1,4
Di, 11.05. 12:50 1002 keine Meldung
Di, 11.05. 12:40 1003 keine Meldung
Di, 11.05. 12:30 1003 - 1,2
Di, 11.05. 12:20 1003 keine Meldung
Di, 11.05. 12:10 1003 keine Meldung
Di, 11.05. 12:00 1003 - 1,5
Di, 11.05. 11:30 1004 - 1,3
Di, 11.05. 11:00 1004 - 0,5
Di, 11.05. 10:30 1004 - 0,1
Di, 11.05. 10:00 1005 - 0,1
Ortszeit Schneehöhe (cm)
Di, 11.05. 8:00 0
Di, 11.05. 2:00 0
Mo, 10.05. 20:00 0
Mo, 10.05. 14:00 0
Mo, 10.05. 8:00 0
Mo, 10.05. 2:00 0
So, 09.05. 20:00 0
So, 09.05. 14:00 0
Ortszeit Schneehöhe (cm)
Di, 11.05. 13:00 0
Di, 11.05. 12:50 0
Di, 11.05. 12:40 0
Di, 11.05. 12:30 0
Di, 11.05. 12:20 0
Di, 11.05. 12:10 0
Di, 11.05. 12:00 0
Di, 11.05. 11:30 0
Di, 11.05. 11:00 0
Di, 11.05. 10:30 0
Di, 11.05. 10:00 0
Link zu dieser Seite / Seite empfehlen

Das Wetter in ...